Time;durP1;ratioP1;P1;durP2;ratioP2;P2;SDS_P1;SDS_P2;PMS_P1;PMS_P2;Temp;Humidity;BMP_temperature;BMP_pressure;BME280_temperature;BME280_humidity;BME280_pressure;Samples;Min_cycle;Max_cycle;Signal;HPM_P1;HPM_P2
2021/06/02 00:02:13;;;;;;;4.78;2.78;;;18.60;99.70;;;;;;5073185;28;20266;-77
2021/06/02 00:04:44;;;;;;;3.38;2.67;;;18.50;99.50;;;;;;5069403;28;20219;-76
2021/06/02 00:07:15;;;;;;;4.90;2.65;;;18.40;99.80;;;;;;5069321;28;20205;-77
2021/06/02 00:09:42;;;;;;;3.40;2.70;;;18.40;99.90;;;;;;5069208;28;20201;-76
2021/06/02 00:12:11;;;;;;;3.00;2.78;;;18.40;99.90;;;;;;5070288;28;20203;-76
2021/06/02 00:14:38;;;;;;;3.63;2.80;;;18.40;99.90;;;;;;5069087;28;20257;-76
2021/06/02 00:17:06;;;;;;;3.38;3.08;;;18.40;99.90;;;;;;5075232;28;20619;-76
2021/06/02 00:19:32;;;;;;;3.67;3.38;;;18.30;99.90;;;;;;5077097;28;21119;-77
2021/06/02 00:22:00;;;;;;;3.00;2.60;;;18.30;99.90;;;;;;5071613;28;20273;-76
2021/06/02 00:24:29;;;;;;;3.60;3.30;;;18.20;99.90;;;;;;5069946;28;20632;-76
2021/06/02 00:26:57;;;;;;;3.20;2.95;;;18.10;99.90;;;;;;5069045;28;20722;-76
2021/06/02 00:29:27;;;;;;;4.95;2.88;;;18.00;99.90;;;;;;5069583;28;20198;-76
2021/06/02 00:31:53;;;;;;;8.05;3.25;;;18.00;99.90;;;;;;5076158;28;20599;-76
2021/06/02 00:34:20;;;;;;;3.58;3.28;;;18.00;99.90;;;;;;5068786;28;20252;-77
2021/06/02 00:36:48;;;;;;;3.45;3.22;;;18.00;99.90;;;;;;5069286;28;20216;-76
2021/06/02 00:39:14;;;;;;;3.08;2.88;;;18.00;99.90;;;;;;5074453;28;20845;-76
2021/06/02 00:41:45;;;;;;;2.97;2.78;;;17.90;99.90;;;;;;5068863;28;20206;-76
2021/06/02 00:44:13;;;;;;;7.53;2.80;;;17.80;99.90;;;;;;5089412;28;20205;-76
2021/06/02 00:46:40;;;;;;;5.20;3.00;;;17.70;99.90;;;;;;5069265;28;20232;-77
2021/06/02 00:49:08;;;;;;;7.35;2.90;;;17.70;99.90;;;;;;5068977;28;20232;-76
2021/06/02 00:51:36;;;;;;;4.43;2.60;;;17.70;99.90;;;;;;5069512;28;20198;-76
2021/06/02 00:54:04;;;;;;;3.45;2.83;;;17.60;99.90;;;;;;5069961;28;20231;-77
2021/06/02 00:56:36;;;;;;;4.93;3.25;;;17.50;99.90;;;;;;5075648;28;20219;-77
2021/06/02 00:59:13;;;;;;;4.55;2.53;;;17.50;99.90;;;;;;5077674;28;20196;-77
2021/06/02 01:01:39;;;;;;;3.42;2.67;;;17.50;99.90;;;;;;5073359;28;20214;-77
2021/06/02 01:04:08;;;;;;;3.30;3.00;;;17.40;99.90;;;;;;5068990;28;20202;-77
2021/06/02 01:06:34;;;;;;;3.65;3.28;;;17.30;99.90;;;;;;5069234;28;20202;-77
2021/06/02 01:09:03;;;;;;;4.63;2.92;;;17.20;99.90;;;;;;5076183;28;20222;-77
2021/06/02 01:11:31;;;;;;;3.58;3.15;;;17.10;99.90;;;;;;5073387;28;20202;-77
2021/06/02 01:13:59;;;;;;;3.08;2.75;;;17.10;99.90;;;;;;5076633;28;20229;-77
2021/06/02 01:16:31;;;;;;;4.05;3.30;;;17.00;99.90;;;;;;5071762;28;20197;-77
2021/06/02 01:18:58;;;;;;;6.85;3.22;;;17.10;99.90;;;;;;5068619;28;20217;-77
2021/06/02 01:21:28;;;;;;;3.28;2.97;;;17.10;99.90;;;;;;5067858;28;20197;-77
2021/06/02 01:23:59;;;;;;;3.55;3.25;;;17.10;99.90;;;;;;5068320;28;20206;-76
2021/06/02 01:26:28;;;;;;;3.80;3.40;;;17.00;99.90;;;;;;5068471;28;20213;-76
2021/06/02 01:28:55;;;;;;;4.07;2.90;;;16.90;99.90;;;;;;5076493;28;20714;-77
2021/06/02 01:31:41;;;;;;;3.85;3.42;;;16.80;99.90;;;;;;5071385;28;20201;-77
2021/06/02 01:34:22;;;;;;;3.35;3.03;;;16.80;99.90;;;;;;5067277;28;20261;-77
2021/06/02 01:37:15;;;;;;;5.47;2.88;;;16.80;99.90;;;;;;5068177;28;20231;-76
2021/06/02 01:40:15;;;;;;;5.82;3.25;;;16.80;99.90;;;;;;5067855;28;20208;-76
2021/06/02 01:42:50;;;;;;;3.50;3.20;;;16.70;99.90;;;;;;5068011;28;20243;-76
2021/06/02 01:45:51;;;;;;;4.13;3.25;;;16.60;99.90;;;;;;5067398;28;20261;-76
2021/06/02 01:48:36;;;;;;;5.07;3.53;;;16.60;99.90;;;;;;5067896;28;20208;-76
2021/06/02 01:51:27;;;;;;;4.20;3.70;;;16.40;99.90;;;;;;5067795;28;20549;-75
2021/06/02 01:54:35;;;;;;;4.93;3.10;;;16.30;99.90;;;;;;5077563;28;20671;-76
2021/06/02 01:57:32;;;;;;;5.15;3.33;;;16.30;99.90;;;;;;5073908;28;20205;-76
2021/06/02 02:00:24;;;;;;;5.38;3.22;;;16.10;99.90;;;;;;5069071;28;20201;-76
2021/06/02 02:03:24;;;;;;;4.25;3.40;;;16.10;99.90;;;;;;5065525;28;20203;-76
2021/06/02 02:06:24;;;;;;;4.25;3.28;;;16.10;99.90;;;;;;5022859;28;20201;-76
2021/06/02 02:09:03;;;;;;;6.05;3.50;;;16.10;99.90;;;;;;5072887;28;20202;-77
2021/06/02 02:11:36;;;;;;;3.85;3.55;;;16.10;99.90;;;;;;5068075;28;20335;-77
2021/06/02 02:14:44;;;;;;;3.58;3.10;;;16.10;99.90;;;;;;5051232;28;20264;-77
2021/06/02 02:17:45;;;;;;;7.13;3.30;;;16.10;99.90;;;;;;5066647;28;20208;-77
2021/06/02 02:20:18;;;;;;;6.13;3.45;;;16.00;99.90;;;;;;5071549;28;20208;-76
2021/06/02 02:23:02;;;;;;;3.30;3.00;;;16.00;99.90;;;;;;5067949;28;20901;-77
2021/06/02 02:25:44;;;;;;;4.65;3.20;;;16.00;99.90;;;;;;5074465;28;20202;-77
2021/06/02 02:28:21;;;;;;;4.18;3.22;;;15.90;99.90;;;;;;5067971;28;20340;-76
2021/06/02 02:30:57;;;;;;;5.05;3.40;;;16.00;99.90;;;;;;5068124;28;20210;-77
2021/06/02 02:33:35;;;;;;;3.67;3.30;;;16.00;99.90;;;;;;5067112;28;20235;-76
2021/06/02 02:36:17;;;;;;;5.00;3.55;;;16.00;99.90;;;;;;5067889;28;20235;-77
2021/06/02 02:39:13;;;;;;;7.43;3.20;;;16.10;99.90;;;;;;5067587;28;20230;-76
2021/06/02 02:41:51;;;;;;;4.55;3.30;;;16.00;99.90;;;;;;5063013;28;20197;-77
2021/06/02 02:44:42;;;;;;;3.60;3.22;;;16.10;99.90;;;;;;5071224;28;20236;-77
2021/06/02 02:47:17;;;;;;;5.00;4.35;;;16.10;99.90;;;;;;5061259;28;20208;-77
2021/06/02 02:49:57;;;;;;;2.95;2.67;;;16.10;99.90;;;;;;5070668;28;20208;-77
2021/06/02 02:52:34;;;;;;;4.75;3.20;;;16.10;99.90;;;;;;5067749;28;20197;-78
2021/06/02 02:55:04;;;;;;;6.13;3.47;;;16.10;99.90;;;;;;5074180;28;20291;-76
2021/06/02 02:57:39;;;;;;;5.07;3.20;;;16.10;99.90;;;;;;5070341;28;20213;-76
2021/06/02 03:00:08;;;;;;;5.88;3.78;;;16.10;99.90;;;;;;5079878;28;20689;-77
2021/06/02 03:02:43;;;;;;;4.90;3.67;;;15.90;99.90;;;;;;5066471;28;20196;-77
2021/06/02 03:05:15;;;;;;;5.00;3.15;;;15.90;99.90;;;;;;5066761;28;20196;-76
2021/06/02 03:07:49;;;;;;;9.98;3.10;;;15.80;99.90;;;;;;5068896;28;20646;-76
2021/06/02 03:10:18;;;;;;;3.60;3.30;;;15.80;99.90;;;;;;5066917;28;21000;-76
2021/06/02 03:12:57;;;;;;;4.78;3.35;;;15.70;99.90;;;;;;5076700;28;20208;-76
2021/06/02 03:15:40;;;;;;;4.03;3.47;;;15.60;99.90;;;;;;5066710;28;20204;-75
2021/06/02 03:18:24;;;;;;;4.82;3.28;;;15.70;99.90;;;;;;5072689;28;20237;-76
2021/06/02 03:20:57;;;;;;;3.90;3.50;;;15.70;99.90;;;;;;5067054;28;20648;-76
2021/06/02 03:23:30;;;;;;;3.78;3.47;;;15.60;99.90;;;;;;5066165;28;20218;-76
2021/06/02 03:26:05;;;;;;;4.95;3.70;;;15.60;99.90;;;;;;5067000;28;20251;-76
2021/06/02 03:28:56;;;;;;;5.80;3.47;;;15.50;99.90;;;;;;5070155;28;20212;-76
2021/06/02 03:31:31;;;;;;;4.15;3.35;;;15.50;99.90;;;;;;5064478;28;20219;-76
2021/06/02 03:34:24;;;;;;;3.33;3.03;;;15.50;99.90;;;;;;5066183;28;20228;-77
2021/06/02 03:37:15;;;;;;;8.38;4.45;;;15.40;99.90;;;;;;5066932;28;20213;-77
2021/06/02 03:39:58;;;;;;;5.38;3.42;;;15.50;99.90;;;;;;5078238;28;20242;-76
2021/06/02 03:42:32;;;;;;;6.10;4.18;;;15.50;99.90;;;;;;5068609;28;20204;-76
2021/06/02 03:45:19;;;;;;;4.60;4.18;;;15.40;99.90;;;;;;5077681;28;20290;-76
2021/06/02 03:47:58;;;;;;;4.20;3.33;;;15.40;99.90;;;;;;5071575;28;20203;-76
2021/06/02 03:50:30;;;;;;;5.47;4.18;;;15.30;99.90;;;;;;5070780;28;20204;-76
2021/06/02 03:53:07;;;;;;;5.30;3.88;;;15.30;99.90;;;;;;5069937;28;20226;-76
2021/06/02 03:55:37;;;;;;;6.53;4.10;;;15.30;99.90;;;;;;5071613;28;20231;-76
2021/06/02 03:58:27;;;;;;;6.47;4.40;;;15.30;99.90;;;;;;5071661;28;20208;-76
2021/06/02 04:01:10;;;;;;;3.78;3.47;;;15.30;99.90;;;;;;5073597;28;20204;-76
2021/06/02 04:03:51;;;;;;;5.88;4.68;;;15.20;99.90;;;;;;5067089;28;20204;-76
2021/06/02 04:06:27;;;;;;;5.47;4.57;;;15.20;99.90;;;;;;5065176;28;20215;-76
2021/06/02 04:09:04;;;;;;;4.97;4.20;;;15.20;99.90;;;;;;5065604;28;20207;-77
2021/06/02 04:11:38;;;;;;;4.78;3.90;;;15.20;99.90;;;;;;5065984;28;20620;-77
2021/06/02 04:14:06;;;;;;;4.80;3.72;;;15.20;99.90;;;;;;5066103;28;20231;-76
2021/06/02 04:16:34;;;;;;;6.28;4.25;;;15.20;99.90;;;;;;5065385;28;20212;-77
2021/06/02 04:19:04;;;;;;;9.20;4.55;;;15.10;99.90;;;;;;5071242;28;20211;-76
2021/06/02 04:21:33;;;;;;;9.02;4.30;;;15.10;99.90;;;;;;5066389;28;20215;-76
2021/06/02 04:24:03;;;;;;;6.43;4.60;;;15.00;99.90;;;;;;5064929;28;20268;-77
2021/06/02 04:26:30;;;;;;;4.10;3.47;;;15.10;99.90;;;;;;5065771;28;20204;-77
2021/06/02 04:28:59;;;;;;;5.82;4.57;;;15.10;99.90;;;;;;5074202;28;20216;-77
2021/06/02 04:31:28;;;;;;;8.43;4.78;;;15.10;99.90;;;;;;5071270;28;20260;-76
2021/06/02 04:33:56;;;;;;;5.05;4.20;;;15.20;99.90;;;;;;5065630;28;20240;-77
2021/06/02 04:36:24;;;;;;;4.55;3.90;;;15.10;99.90;;;;;;5073214;28;20207;-78
2021/06/02 04:38:53;;;;;;;6.18;4.60;;;15.10;99.90;;;;;;5065940;28;20265;-77
2021/06/02 04:41:22;;;;;;;5.03;4.50;;;15.10;99.90;;;;;;5074304;28;20283;-77
2021/06/02 04:43:50;;;;;;;4.40;3.90;;;15.20;99.90;;;;;;5073392;28;20736;-77
2021/06/02 04:46:19;;;;;;;7.05;4.50;;;15.40;99.90;;;;;;5076788;28;20215;-77
2021/06/02 04:48:46;;;;;;;6.70;4.57;;;15.70;99.90;;;;;;5071887;28;20201;-76
2021/06/02 04:51:38;;;;;;;8.65;4.28;;;15.90;99.90;;;;;;5069901;28;20204;-77
2021/06/02 04:54:33;;;;;;;6.68;4.22;;;16.10;99.90;;;;;;5031108;28;20278;-76
2021/06/02 04:57:40;;;;;;;5.30;4.13;;;16.30;99.90;;;;;;5074477;28;20205;-76
2021/06/02 05:00:42;;;;;;;9.50;4.50;;;16.30;99.90;;;;;;5068519;28;20197;-76
2021/06/02 05:03:43;;;;;;;6.85;4.60;;;16.30;99.90;;;;;;5073189;28;20216;-77
2021/06/02 05:06:45;;;;;;;5.68;3.35;;;16.20;99.90;;;;;;5068646;28;20216;-77
2021/06/02 05:09:50;;;;;;;5.68;4.00;;;16.20;99.90;;;;;;5073747;28;20242;-77
2021/06/02 05:12:58;;;;;;;4.53;3.90;;;16.30;99.90;;;;;;5058767;28;20208;-76
2021/06/02 05:16:12;;;;;;;10.70;4.40;;;16.40;99.90;;;;;;5060639;28;20204;-76
2021/06/02 05:19:33;;;;;;;4.75;4.15;;;16.40;99.90;;;;;;5068402;28;20218;-76
2021/06/02 05:22:30;;;;;;;5.80;4.70;;;16.40;99.90;;;;;;5073249;28;20230;-77
2021/06/02 05:25:54;;;;;;;4.50;3.92;;;16.50;99.90;;;;;;5078254;28;20586;-77
2021/06/02 05:29:04;;;;;;;4.57;4.18;;;16.50;99.90;;;;;;5008045;28;20203;-77
2021/06/02 05:32:06;;;;;;;12.50;4.30;;;16.50;99.90;;;;;;5019553;28;20205;-77
2021/06/02 05:35:00;;;;;;;7.30;4.30;;;16.50;99.90;;;;;;5006057;28;20234;-77
2021/06/02 05:38:16;;;;;;;5.45;3.88;;;16.60;99.90;;;;;;5012220;28;20245;-77
2021/06/02 05:40:52;;;;;;;6.32;3.72;;;16.70;99.90;;;;;;5012620;28;20222;-78
2021/06/02 05:44:10;;;;;;;4.97;4.05;;;16.70;99.90;;;;;;5011406;28;20677;-77
2021/06/02 05:47:09;;;;;;;5.47;4.47;;;16.80;99.90;;;;;;4973458;28;20202;-77
2021/06/02 05:49:57;;;;;;;5.73;4.20;;;17.00;99.90;;;;;;4969167;28;20453;-76
2021/06/02 05:53:18;;;;;;;4.28;3.88;;;17.10;99.90;;;;;;4954772;28;20476;-76
2021/06/02 05:56:15;;;;;;;4.38;3.78;;;17.20;99.90;;;;;;4962291;28;20208;-77
2021/06/02 05:59:23;;;;;;;13.30;6.10;;;17.40;99.90;;;;;;4949579;28;20219;-78
2021/06/02 06:02:22;;;;;;;6.65;4.15;;;17.60;99.90;;;;;;4898219;29;20254;-77
2021/06/02 06:05:16;;;;;;;5.65;3.50;;;17.80;99.90;;;;;;4922858;29;20210;-77
2021/06/02 06:08:44;;;;;;;9.77;4.03;;;18.20;99.90;;;;;;4923579;29;20338;-76
2021/06/02 06:11:59;;;;;;;6.27;4.00;;;18.60;99.90;;;;;;4916018;29;20549;-77
2021/06/02 06:15:08;;;;;;;11.63;4.38;;;19.20;99.90;;;;;;4914054;29;20233;-78
2021/06/02 06:17:49;;;;;;;4.90;3.83;;;19.60;99.90;;;;;;4945848;28;20662;-76
2021/06/02 06:20:33;;;;;;;4.03;3.72;;;20.20;99.90;;;;;;4967676;28;20220;-76
2021/06/02 06:23:16;;;;;;;5.45;3.75;;;20.60;99.90;;;;;;4976007;28;20210;-76
2021/06/02 06:25:51;;;;;;;3.40;3.10;;;21.00;99.90;;;;;;4976692;28;20212;-76
2021/06/02 06:28:25;;;;;;;5.07;3.75;;;21.30;99.90;;;;;;4981830;28;20214;-76
2021/06/02 06:30:53;;;;;;;6.68;3.40;;;21.70;99.90;;;;;;4966515;28;20210;-77
2021/06/02 06:33:23;;;;;;;8.45;2.92;;;22.00;99.90;;;;;;4970120;28;20269;-77
2021/06/02 06:35:55;;;;;;;6.63;3.28;;;22.40;99.90;;;;;;4966987;28;20200;-76
2021/06/02 06:38:54;;;;;;;3.65;2.90;;;22.50;99.90;;;;;;5063168;28;20192;-76
2021/06/02 06:41:25;;;;;;;4.15;2.72;;;22.80;99.90;;;;;;5065864;28;20714;-76
2021/06/02 06:43:55;;;;;;;4.00;3.67;;;23.10;99.90;;;;;;5066231;28;20204;-76
2021/06/02 06:46:23;;;;;;;11.40;3.17;;;23.30;99.90;;;;;;5065601;28;20212;-76
2021/06/02 06:48:52;;;;;;;3.85;2.72;;;23.50;99.90;;;;;;5069174;28;20201;-76
2021/06/02 06:51:20;;;;;;;5.78;3.65;;;23.70;99.90;;;;;;5065668;28;20225;-76
2021/06/02 06:53:48;;;;;;;3.63;3.38;;;23.90;99.90;;;;;;5065743;28;20233;-76
2021/06/02 06:56:16;;;;;;;5.03;3.45;;;24.10;99.90;;;;;;5068179;28;20205;-76
2021/06/02 06:58:44;;;;;;;5.90;3.35;;;24.30;99.90;;;;;;5066169;28;20209;-76
2021/06/02 07:01:14;;;;;;;4.97;2.83;;;24.40;99.90;;;;;;5072269;28;20198;-76
2021/06/02 07:03:41;;;;;;;5.32;2.92;;;24.70;99.90;;;;;;5066585;28;20665;-76
2021/06/02 07:06:09;;;;;;;5.82;3.33;;;25.00;99.90;;;;;;5065684;28;20210;-76
2021/06/02 07:08:36;;;;;;;2.85;2.65;;;25.20;99.60;;;;;;5072730;28;20206;-78
2021/06/02 07:11:03;;;;;;;3.17;2.78;;;25.50;99.30;;;;;;5071060;28;20221;-77
2021/06/02 07:13:31;;;;;;;3.30;3.00;;;25.60;98.40;;;;;;5056073;28;20217;-77
2021/06/02 07:16:01;;;;;;;7.30;2.45;;;25.80;98.10;;;;;;5074507;28;20228;-78
2021/06/02 07:18:33;;;;;;;3.70;3.00;;;25.90;98.80;;;;;;5078705;28;20202;-78
2021/06/02 07:21:03;;;;;;;3.40;3.10;;;26.20;99.40;;;;;;5069481;28;20275;-77
2021/06/02 07:23:32;;;;;;;5.53;3.00;;;26.30;99.20;;;;;;5069025;28;20240;-78
2021/06/02 07:25:59;;;;;;;3.20;2.63;;;26.40;97.70;;;;;;5072124;28;20210;-77
2021/06/02 07:28:34;;;;;;;4.50;2.90;;;26.60;97.30;;;;;;5066878;28;20202;-77
2021/06/02 07:31:00;;;;;;;5.20;3.08;;;26.70;96.50;;;;;;5070254;28;20198;-77
2021/06/02 07:36:09;;;;;;;3.67;2.70;;;27.00;97.00;;;;;;5064709;28;20267;-76
2021/06/02 07:38:35;;;;;;;9.27;3.15;;;27.10;95.40;;;;;;5064449;28;20222;-76
2021/06/02 07:41:02;;;;;;;12.63;2.63;;;27.20;95.10;;;;;;5065048;28;20213;-76
2021/06/02 07:43:28;;;;;;;3.67;3.38;;;27.30;95.00;;;;;;5064955;28;20239;-75
2021/06/02 07:45:55;;;;;;;5.15;3.25;;;27.30;95.10;;;;;;5066057;28;20225;-75
2021/06/02 07:48:21;;;;;;;4.85;3.70;;;27.40;95.20;;;;;;5065461;28;20203;-76
2021/06/02 07:50:49;;;;;;;4.53;3.35;;;27.30;95.40;;;;;;5077286;28;20238;-76
2021/06/02 07:53:16;;;;;;;4.30;3.30;;;27.30;94.30;;;;;;5075541;28;20716;-76
2021/06/02 07:55:42;;;;;;;8.75;3.47;;;27.20;92.80;;;;;;5065726;28;20209;-76
2021/06/02 07:58:08;;;;;;;17.02;3.58;;;27.20;93.20;;;;;;5067305;28;20549;-78
2021/06/02 08:00:35;;;;;;;5.93;3.13;;;27.10;93.40;;;;;;5066151;28;20562;-77
2021/06/02 08:03:01;;;;;;;6.13;2.80;;;27.00;93.10;;;;;;5067582;28;20205;-79
2021/06/02 08:05:28;;;;;;;4.68;2.90;;;26.90;92.50;;;;;;5072698;28;20204;-77
2021/06/02 08:07:56;;;;;;;6.07;2.80;;;26.80;92.20;;;;;;5066562;28;20211;-76
2021/06/02 08:13:04;;;;;;;4.38;2.72;;;26.80;93.40;;;;;;5073576;28;20235;-79
2021/06/02 08:15:31;;;;;;;5.85;2.95;;;26.70;92.10;;;;;;5071101;28;20203;-78
2021/06/02 08:17:58;;;;;;;3.20;2.58;;;26.60;91.90;;;;;;5071402;28;20233;-78
2021/06/02 08:20:25;;;;;;;3.97;2.90;;;26.40;91.50;;;;;;5072756;28;20199;-78
2021/06/02 08:22:51;;;;;;;4.00;3.10;;;26.40;93.20;;;;;;5075226;28;20201;-78
2021/06/02 08:33:29;;;;;;;3.22;2.60;;;26.90;90.30;;;;;;5073638;28;20692;-78
2021/06/02 08:44:01;;;;;;;4.45;2.30;;;27.60;87.70;;;;;;5068774;28;20222;-76
2021/06/02 08:46:28;;;;;;;4.45;2.33;;;27.70;89.50;;;;;;5070882;28;20214;-79
2021/06/02 08:48:55;;;;;;;2.80;2.38;;;27.90;88.20;;;;;;5078442;28;20207;-80
2021/06/02 08:51:21;;;;;;;3.22;1.92;;;28.10;83.10;;;;;;5074820;28;20558;-79
2021/06/02 08:53:49;;;;;;;8.27;2.35;;;28.30;83.50;;;;;;5074215;28;20234;-79
2021/06/02 08:56:23;;;;;;;2.95;2.10;;;28.50;83.00;;;;;;5082227;28;20215;-79
2021/06/02 08:59:06;;;;;;;2.95;2.70;;;28.80;85.00;;;;;;5083259;28;20236;-77
2021/06/02 09:06:56;;;;;;;6.32;2.33;;;29.60;78.30;;;;;;5072508;28;20229;-80
2021/06/02 09:09:23;;;;;;;2.83;2.63;;;29.80;80.10;;;;;;5083928;28;20207;-79
2021/06/02 09:11:51;;;;;;;3.63;2.45;;;30.10;77.80;;;;;;5074154;28;20202;-79
2021/06/02 09:14:42;;;;;;;11.32;2.80;;;30.40;77.80;;;;;;5075022;28;20222;-79
2021/06/02 09:17:10;;;;;;;5.15;2.28;;;30.40;75.60;;;;;;5059652;28;21037;-76
2021/06/02 09:19:41;;;;;;;2.92;2.72;;;30.60;72.90;;;;;;5066238;28;20213;-76
2021/06/02 09:22:10;;;;;;;4.50;2.00;;;30.90;74.50;;;;;;5066977;28;20218;-76
2021/06/02 09:25:04;;;;;;;6.50;2.40;;;31.00;74.80;;;;;;5074986;28;20977;-76
2021/06/02 09:27:45;;;;;;;4.95;2.83;;;31.00;70.20;;;;;;5069010;28;20205;-76
2021/06/02 09:30:15;;;;;;;2.28;2.13;;;31.20;70.60;;;;;;5067641;28;20224;-76
2021/06/02 09:32:47;;;;;;;2.10;2.00;;;31.20;68.70;;;;;;5068033;28;20241;-76
2021/06/02 09:35:14;;;;;;;2.85;2.17;;;31.30;69.60;;;;;;5076901;28;20229;-77
2021/06/02 09:37:52;;;;;;;5.35;2.22;;;31.40;68.10;;;;;;5074993;28;20572;-76
2021/06/02 09:40:21;;;;;;;2.95;2.17;;;31.40;68.90;;;;;;5067197;28;20673;-76
2021/06/02 09:42:48;;;;;;;2.65;2.38;;;31.50;66.00;;;;;;5067941;28;20264;-76
2021/06/02 09:45:16;;;;;;;5.45;2.20;;;31.60;67.10;;;;;;5070699;28;20228;-76
2021/06/02 09:47:45;;;;;;;2.03;1.45;;;31.60;64.50;;;;;;5078604;28;20273;-75
2021/06/02 09:50:13;;;;;;;3.28;2.05;;;31.70;63.00;;;;;;5073990;28;20208;-76
2021/06/02 09:52:46;;;;;;;5.03;2.00;;;32.00;62.80;;;;;;5073460;28;20203;-76
2021/06/02 09:55:15;;;;;;;1.92;1.80;;;32.00;59.40;;;;;;5074123;28;20700;-76
2021/06/02 09:57:41;;;;;;;1.65;1.55;;;31.80;59.70;;;;;;5067272;28;20205;-76
2021/06/02 10:00:10;;;;;;;2.60;2.33;;;32.00;59.30;;;;;;5076111;28;20212;-76
2021/06/02 10:11:12;;;;;;;1.88;1.73;;;32.60;60.60;;;;;;5087292;28;20206;-77
2021/06/02 10:13:39;;;;;;;3.90;1.90;;;32.60;59.80;;;;;;5084875;28;20239;-77
2021/06/02 10:16:06;;;;;;;2.90;2.38;;;33.00;58.80;;;;;;5088326;28;20203;-77
2021/06/02 10:21:15;;;;;;;2.40;2.30;;;33.80;55.50;;;;;;5082704;28;20300;-77
2021/06/02 10:23:45;;;;;;;3.15;2.05;;;34.30;57.00;;;;;;5085364;28;20275;-77
2021/06/02 10:26:13;;;;;;;4.72;2.20;;;34.50;57.10;;;;;;5082371;28;20207;-76
2021/06/02 10:28:40;;;;;;;4.10;1.88;;;34.20;54.70;;;;;;5082884;28;20210;-77
2021/06/02 10:31:09;;;;;;;79.25;74.57;;;34.30;55.80;;;;;;5088320;28;20210;-77
2021/06/02 10:33:36;;;;;;;3.45;2.10;;;34.20;55.90;;;;;;5087448;28;20210;-77
2021/06/02 10:36:04;;;;;;;18.40;16.92;;;34.50;56.90;;;;;;5088748;28;20203;-77
2021/06/02 10:38:34;;;;;;;203.80;188.77;;;34.20;55.30;;;;;;5085474;28;20199;-77
2021/06/02 10:41:03;;;;;;;71.82;67.53;;;34.20;54.30;;;;;;5086971;28;20198;-77
2021/06/02 10:43:34;;;;;;;115.65;108.85;;;33.70;53.90;;;;;;5086099;28;20227;-77
2021/06/02 10:46:05;;;;;;;194.10;179.63;;;33.40;58.10;;;;;;5084246;28;20216;-76
2021/06/02 10:48:38;;;;;;;202.73;184.43;;;33.30;54.50;;;;;;5088487;28;20205;-77
2021/06/02 10:51:05;;;;;;;192.25;176.15;;;33.40;55.70;;;;;;5089626;28;20209;-77
2021/06/02 10:53:32;;;;;;;278.38;252.35;;;33.30;54.20;;;;;;5082130;28;20208;-77
2021/06/02 10:56:01;;;;;;;5.97;1.80;;;33.20;52.70;;;;;;5092489;28;20211;-77
2021/06/02 10:58:30;;;;;;;2.03;1.92;;;33.40;55.50;;;;;;5082116;28;20202;-77
2021/06/02 11:01:18;;;;;;;2.38;2.17;;;33.20;57.30;;;;;;5084060;28;20205;-77
2021/06/02 11:03:48;;;;;;;4.05;3.65;;;33.00;54.90;;;;;;5081609;28;20243;-77
2021/06/02 11:06:38;;;;;;;2.55;2.45;;;32.90;55.10;;;;;;5085293;28;20201;-77
2021/06/02 11:09:22;;;;;;;421.45;388.27;;;32.70;53.80;;;;;;5081351;28;20237;-77
2021/06/02 11:12:00;;;;;;;6.22;2.25;;;32.40;53.60;;;;;;5091195;28;20220;-77
2021/06/02 11:14:28;;;;;;;2.67;1.95;;;32.00;55.70;;;;;;5077732;28;20216;-77
2021/06/02 11:17:01;;;;;;;2.47;2.28;;;31.60;57.30;;;;;;5073085;28;20213;-77
2021/06/02 11:19:30;;;;;;;2.10;2.00;;;31.30;55.10;;;;;;5068735;28;20204;-77
2021/06/02 11:22:05;;;;;;;3.92;2.20;;;31.10;55.60;;;;;;5067706;28;20208;-77
2021/06/02 11:24:46;;;;;;;3.55;2.15;;;31.00;54.90;;;;;;5074465;28;20287;-77
2021/06/02 11:27:33;;;;;;;2.53;2.33;;;30.90;54.10;;;;;;5068130;28;20201;-77
2021/06/02 11:30:18;;;;;;;6.20;3.08;;;30.60;57.30;;;;;;5078850;28;20207;-77
2021/06/02 11:33:12;;;;;;;3.33;2.78;;;30.30;57.30;;;;;;5071772;28;20205;-77
2021/06/02 11:35:59;;;;;;;5.28;2.53;;;30.10;56.80;;;;;;5071819;28;20229;-77
2021/06/02 11:38:27;;;;;;;19.27;4.82;;;30.00;55.90;;;;;;5067540;28;20209;-76
2021/06/02 11:40:55;;;;;;;4.13;2.78;;;29.90;57.00;;;;;;5071809;28;20620;-76
2021/06/02 11:43:21;;;;;;;4.30;2.72;;;29.80;57.70;;;;;;5072511;28;20593;-77
2021/06/02 11:45:50;;;;;;;4.53;2.60;;;29.80;59.50;;;;;;5073076;28;20202;-76
2021/06/02 11:48:22;;;;;;;3.40;2.45;;;29.80;58.80;;;;;;5073446;28;20217;-77
2021/06/02 11:50:48;;;;;;;2.30;2.20;;;29.70;59.30;;;;;;5069866;28;20205;-78
2021/06/02 11:53:15;;;;;;;3.38;2.50;;;29.70;61.00;;;;;;5068899;28;20197;-77
2021/06/02 11:55:41;;;;;;;3.20;2.67;;;29.70;56.10;;;;;;5069708;28;20209;-76
2021/06/02 11:58:08;;;;;;;2.78;2.13;;;29.70;58.10;;;;;;5070617;28;20209;-76
2021/06/02 12:00:36;;;;;;;3.85;2.58;;;29.50;56.90;;;;;;5070724;28;20199;-77
2021/06/02 12:03:06;;;;;;;3.00;2.80;;;29.50;56.00;;;;;;5066622;28;20229;-77
2021/06/02 12:05:33;;;;;;;2.55;2.35;;;29.50;57.60;;;;;;5080077;28;20196;-77
2021/06/02 12:08:01;;;;;;;3.53;2.60;;;29.40;60.00;;;;;;5069177;28;20206;-78
2021/06/02 12:10:30;;;;;;;2.85;2.30;;;29.40;58.80;;;;;;5067416;28;20641;-77
2021/06/02 12:12:57;;;;;;;1.92;1.83;;;29.30;56.60;;;;;;5070626;28;20233;-78
2021/06/02 12:15:25;;;;;;;4.40;2.10;;;29.30;57.40;;;;;;5072732;28;20223;-79
2021/06/02 12:17:53;;;;;;;3.00;2.42;;;29.20;53.50;;;;;;5071807;28;20220;-78
2021/06/02 12:20:23;;;;;;;2.20;2.05;;;29.10;55.50;;;;;;5066140;28;20205;-76
2021/06/02 12:22:51;;;;;;;3.35;2.05;;;29.10;55.30;;;;;;5073744;28;20202;-76
2021/06/02 12:25:20;;;;;;;2.10;2.00;;;29.00;54.30;;;;;;5076030;28;20197;-76
2021/06/02 12:27:48;;;;;;;2.17;1.98;;;29.00;54.80;;;;;;5065914;28;20216;-76
2021/06/02 12:30:17;;;;;;;5.28;2.08;;;29.00;55.40;;;;;;5065907;28;20197;-76
2021/06/02 12:32:51;;;;;;;2.20;2.10;;;28.90;55.00;;;;;;5066680;28;20222;-75
2021/06/02 12:35:48;;;;;;;2.58;2.28;;;28.90;55.30;;;;;;5071247;28;20199;-76
2021/06/02 12:38:18;;;;;;;4.15;2.90;;;29.00;54.60;;;;;;5072581;28;20204;-76
2021/06/02 12:40:46;;;;;;;4.70;2.60;;;28.80;55.60;;;;;;5065876;28;20211;-76
2021/06/02 12:43:14;;;;;;;4.63;2.67;;;28.80;55.90;;;;;;5066056;28;20243;-76
2021/06/02 12:45:41;;;;;;;2.50;2.30;;;28.80;55.40;;;;;;5069657;28;20200;-76
2021/06/02 12:48:09;;;;;;;1.95;1.85;;;28.80;57.10;;;;;;5069336;28;20263;-76
2021/06/02 12:50:52;;;;;;;2.28;2.17;;;28.80;57.40;;;;;;5067360;28;20204;-76
2021/06/02 12:53:19;;;;;;;3.33;3.03;;;28.80;57.00;;;;;;5069972;28;20232;-76
2021/06/02 12:55:47;;;;;;;2.75;2.55;;;28.90;56.40;;;;;;5066506;28;20233;-75
2021/06/02 12:58:21;;;;;;;2.10;2.00;;;28.90;57.50;;;;;;5078549;28;20213;-74
2021/06/02 13:00:49;;;;;;;3.95;2.20;;;29.00;57.50;;;;;;5066146;28;20216;-75
2021/06/02 13:03:18;;;;;;;3.63;2.25;;;29.10;56.30;;;;;;5074938;28;20236;-75
2021/06/02 13:05:46;;;;;;;4.15;1.80;;;29.00;58.40;;;;;;5070266;28;21204;-75
2021/06/02 13:08:14;;;;;;;2.28;2.08;;;29.00;55.50;;;;;;5073489;28;20673;-76
2021/06/02 13:10:41;;;;;;;2.25;2.10;;;29.00;56.40;;;;;;5064636;28;20231;-76
2021/06/02 13:13:09;;;;;;;2.42;2.22;;;28.90;56.80;;;;;;5068371;28;20211;-76
2021/06/02 13:15:38;;;;;;;1.95;1.85;;;28.80;56.70;;;;;;5070342;28;20197;-76
2021/06/02 13:18:07;;;;;;;2.55;1.90;;;28.80;56.20;;;;;;5069326;28;20223;-76
2021/06/02 13:20:39;;;;;;;3.85;2.10;;;28.70;58.60;;;;;;5066357;28;20212;-75
2021/06/02 13:23:18;;;;;;;2.85;2.47;;;28.70;59.60;;;;;;5070495;28;20221;-76
2021/06/02 13:25:57;;;;;;;2.58;2.38;;;28.70;57.60;;;;;;5066838;28;20563;-76
2021/06/02 13:28:27;;;;;;;2.10;2.00;;;28.60;58.10;;;;;;5069384;28;20208;-76
2021/06/02 13:30:57;;;;;;;3.35;2.88;;;28.60;55.80;;;;;;5073679;28;20213;-76
2021/06/02 13:33:24;;;;;;;3.15;2.25;;;28.50;55.40;;;;;;5067143;28;20544;-76
2021/06/02 13:36:02;;;;;;;3.72;1.80;;;28.60;55.70;;;;;;5069191;28;20200;-75
2021/06/02 13:38:30;;;;;;;3.80;1.92;;;28.50;56.50;;;;;;5071453;28;20255;-76
2021/06/02 13:40:57;;;;;;;2.03;1.88;;;28.50;57.40;;;;;;5065417;28;20220;-76
2021/06/02 13:43:24;;;;;;;2.45;2.33;;;28.50;57.20;;;;;;5071363;28;20231;-76
2021/06/02 13:45:54;;;;;;;4.68;4.47;;;28.60;57.20;;;;;;5069574;28;20208;-76
2021/06/02 13:48:32;;;;;;;6.50;6.20;;;28.70;57.70;;;;;;5069277;28;20231;-76
2021/06/02 13:51:11;;;;;;;5.95;4.82;;;28.60;57.20;;;;;;5064437;28;20204;-76
2021/06/02 13:54:11;;;;;;;6.40;3.08;;;28.70;57.70;;;;;;5068573;28;20211;-76
2021/06/02 13:56:52;;;;;;;3.90;3.67;;;28.70;56.40;;;;;;5065335;28;20545;-76
2021/06/02 13:59:20;;;;;;;2.80;2.30;;;28.60;57.50;;;;;;5070740;28;20511;-78
2021/06/02 14:10:09;;;;;;;5.57;2.85;;;28.70;55.20;;;;;;5067017;28;20630;-79
2021/06/02 14:12:37;;;;;;;4.68;3.13;;;28.60;53.10;;;;;;5081996;28;20201;-78
2021/06/02 14:15:04;;;;;;;5.40;4.88;;;28.50;53.70;;;;;;5069950;28;20223;-76
2021/06/02 14:17:30;;;;;;;3.30;3.03;;;28.50;54.60;;;;;;5065548;28;20201;-76